Time;durP1;ratioP1;P1;durP2;ratioP2;P2;SDS_P1;SDS_P2;PMS_P1;PMS_P2;Temp;Humidity;BMP_temperature;BMP_pressure;BME280_temperature;BME280_humidity;BME280_pressure;Samples;Min_cycle;Max_cycle;Signal;HPM_P1;HPM_P2
2023/04/05 00:01:33;;;;;;;0.30;0.30;;;;;;;10.10;100.00;101109.97;5033077;28;20033;-79
2023/04/05 00:03:59;;;;;;;0.30;0.30;;;;;;;10.07;100.00;101104.94;4984926;28;20033;-81
2023/04/05 00:06:27;;;;;;;0.40;0.40;;;;;;;10.11;100.00;101113.53;4984411;28;20479;-80
2023/04/05 00:09:03;;;;;;;0.30;0.30;;;;;;;10.12;100.00;101115.19;5017043;28;20079;-80
2023/04/05 00:11:31;;;;;;;0.50;0.50;;;;;;;10.11;100.00;101114.38;5000585;28;20391;-80
2023/04/05 00:14:01;;;;;;;0.30;0.30;;;;;;;10.12;100.00;101113.34;5033789;28;20490;-83
2023/04/05 00:16:28;;;;;;;0.40;0.40;;;;;;;10.13;100.00;101117.72;5033129;28;20029;-79
2023/04/05 00:18:56;;;;;;;0.40;0.40;;;;;;;10.11;100.00;101100.94;5016320;28;20030;-80
2023/04/05 00:21:22;;;;;;;0.32;0.32;;;;;;;10.10;100.00;101111.81;5000965;28;20048;-84
2023/04/05 00:23:58;;;;;;;1.05;0.60;;;;;;;10.08;100.00;101113.81;5000153;28;20499;-83
2023/04/05 00:26:24;;;;;;;0.30;0.30;;;;;;;10.02;100.00;101109.13;5001029;28;20087;-81
2023/04/05 00:28:51;;;;;;;0.40;0.40;;;;;;;9.98;100.00;101111.31;4999830;28;20492;-84
2023/04/05 00:31:17;;;;;;;0.30;0.30;;;;;;;9.82;100.00;101092.47;5016670;28;20036;-80
2023/04/05 00:33:43;;;;;;;0.40;0.40;;;;;;;9.87;100.00;101100.84;4999825;28;20480;-79
2023/04/05 00:36:15;;;;;;;0.47;0.47;;;;;;;9.87;100.00;101101.69;5016479;28;20112;-80
2023/04/05 00:38:46;;;;;;;0.45;0.40;;;;;;;9.87;100.00;101106.22;5033040;28;20472;-82
2023/04/05 00:41:13;;;;;;;0.43;0.43;;;;;;;9.86;100.00;101091.09;4999951;28;20033;-80
2023/04/05 00:43:39;;;;;;;0.40;0.40;;;;;;;9.85;100.00;101095.66;5000022;28;20037;-82
2023/04/05 00:46:06;;;;;;;0.38;0.38;;;;;;;9.85;100.00;101092.13;4999774;28;20511;-81
2023/04/05 00:48:32;;;;;;;0.38;0.38;;;;;;;9.84;100.00;101091.28;4999940;28;20120;-80
2023/04/05 00:51:01;;;;;;;0.40;0.40;;;;;;;9.83;100.00;101094.13;5000855;28;20057;-79
2023/04/05 00:53:27;;;;;;;0.40;0.40;;;;;;;9.82;100.00;101084.41;5015809;28;20029;-79
2023/04/05 00:55:54;;;;;;;0.43;0.43;;;;;;;9.83;100.00;101091.44;5032180;28;20045;-81
2023/04/05 00:58:24;;;;;;;0.40;0.40;;;;;;;9.73;100.00;101078.13;5016280;28;20034;-78
2023/04/05 01:01:17;;;;;;;0.40;0.40;;;;;;;9.85;100.00;101084.06;5000054;28;20032;-82
2023/04/05 01:03:52;;;;;;;0.40;0.40;;;;;;;9.84;100.00;101079.69;5016184;28;20476;-83
2023/04/05 01:06:56;;;;;;;0.40;0.40;;;;;;;9.89;100.00;101085.41;5016462;28;20472;-82
2023/04/05 01:09:45;;;;;;;0.40;0.40;;;;;;;9.91;100.00;101078.88;5065455;28;20496;-80
2023/04/05 01:12:16;;;;;;;0.45;0.45;;;;;;;9.94;100.00;101074.19;5032354;28;20463;-83
2023/04/05 01:14:44;;;;;;;0.50;0.50;;;;;;;9.89;100.00;101071.97;5015403;28;20491;-79
2023/04/05 01:17:09;;;;;;;0.50;0.50;;;;;;;9.88;100.00;101071.13;4999930;28;20499;-80
2023/04/05 01:19:40;;;;;;;0.60;0.60;;;;;;;9.93;100.00;101070.66;5015157;28;20034;-82
2023/04/05 01:22:19;;;;;;;0.65;0.65;;;;;;;9.93;100.00;101073.34;5032350;28;20032;-81
2023/04/05 01:25:29;;;;;;;0.40;0.40;;;;;;;9.93;100.00;101067.13;5032179;28;20533;-81
2023/04/05 01:28:51;;;;;;;0.40;0.40;;;;;;;9.94;100.00;101069.63;5032406;28;20375;-79
2023/04/05 01:31:50;;;;;;;0.88;0.63;;;;;;;9.98;100.00;101062.94;5003307;28;20046;-81
2023/04/05 01:34:26;;;;;;;0.55;0.55;;;;;;;9.93;100.00;101062.59;4994295;28;20049;-78
2023/04/05 01:36:57;;;;;;;0.88;0.60;;;;;;;9.93;100.00;101062.59;5018085;28;20535;-81
2023/04/05 01:39:24;;;;;;;0.57;0.57;;;;;;;9.91;100.00;101054.69;5003631;28;20476;-79
2023/04/05 01:41:50;;;;;;;1.40;0.50;;;;;;;9.91;100.00;101064.59;5036123;28;20048;-82
2023/04/05 01:44:16;;;;;;;0.50;0.50;;;;;;;9.92;100.00;101060.91;5003392;28;20116;-79
2023/04/05 01:46:42;;;;;;;0.80;0.68;;;;;;;9.92;100.00;101066.28;5037337;28;20068;-79
2023/04/05 01:49:08;;;;;;;0.60;0.60;;;;;;;9.91;100.00;101062.75;5034067;28;20033;-81
2023/04/05 01:51:33;;;;;;;0.63;0.60;;;;;;;9.91;100.00;101051.19;5018269;28;20044;-78
2023/04/05 01:53:59;;;;;;;0.50;0.50;;;;;;;9.92;100.00;101055.53;5036072;28;20040;-78
2023/04/05 01:56:26;;;;;;;0.55;0.55;;;;;;;9.93;100.00;101054.53;5018996;28;20037;-81
2023/04/05 01:58:52;;;;;;;0.50;0.50;;;;;;;9.94;100.00;101053.53;5037054;28;20029;-81
2023/04/05 02:01:18;;;;;;;0.38;0.38;;;;;;;9.87;100.00;101042.63;5002447;28;20044;-81
2023/04/05 02:03:44;;;;;;;0.50;0.50;;;;;;;9.97;100.00;101041.63;5036126;28;20030;-79
2023/04/05 02:06:10;;;;;;;0.50;0.50;;;;;;;9.96;100.00;101038.09;5035858;28;20120;-79
2023/04/05 02:08:36;;;;;;;0.40;0.40;;;;;;;9.97;100.00;101034.38;5019308;28;20480;-80
2023/04/05 02:11:02;;;;;;;1.00;0.60;;;;;;;10.00;100.00;101036.78;5003178;28;20033;-79
2023/04/05 02:13:28;;;;;;;0.88;0.80;;;;;;;9.99;100.00;101028.88;5035581;28;20124;-80
2023/04/05 02:15:53;;;;;;;1.30;0.82;;;;;;;9.94;100.00;101026.66;5003267;28;20125;-82
2023/04/05 02:18:21;;;;;;;0.55;0.55;;;;;;;9.91;100.00;101017.09;5035072;28;20037;-83
2023/04/05 02:20:50;;;;;;;1.42;0.80;;;;;;;9.97;100.00;101026.31;5019454;28;20525;-83
2023/04/05 02:23:18;;;;;;;0.75;0.57;;;;;;;9.98;100.00;101028.03;5018978;28;20034;-78
2023/04/05 02:25:44;;;;;;;0.98;0.70;;;;;;;9.96;100.00;101018.44;5017948;28;20032;-80
2023/04/05 02:28:10;;;;;;;0.93;0.82;;;;;;;9.98;100.00;101022.66;5036559;28;20476;-83
2023/04/05 02:30:36;;;;;;;0.70;0.70;;;;;;;9.98;100.00;101017.28;5018462;28;20033;-83
2023/04/05 02:33:02;;;;;;;0.50;0.50;;;;;;;9.98;100.00;101008.38;5002832;28;20068;-79
2023/04/05 02:35:28;;;;;;;0.50;0.50;;;;;;;10.01;100.00;101016.94;5034130;28;20029;-78
2023/04/05 02:37:55;;;;;;;0.70;0.60;;;;;;;10.00;100.00;101011.72;5035557;28;20038;-82
2023/04/05 02:40:21;;;;;;;0.60;0.60;;;;;;;10.02;100.00;101005.19;5018791;28;20529;-81
2023/04/05 02:42:47;;;;;;;0.50;0.50;;;;;;;10.00;100.00;100998.28;5017494;28;20480;-81
2023/04/05 02:45:13;;;;;;;1.33;1.00;;;;;;;10.02;100.00;101007.03;5002472;28;20036;-82
2023/04/05 02:47:39;;;;;;;0.63;0.63;;;;;;;10.01;100.00;100995.44;5018512;28;20033;-83
2023/04/05 02:50:05;;;;;;;1.98;0.60;;;;;;;10.04;100.00;100997.81;5017151;28;20030;-78
2023/04/05 02:52:31;;;;;;;0.73;0.60;;;;;;;10.05;100.00;100995.94;5019045;28;20037;-83
2023/04/05 02:54:57;;;;;;;0.80;0.70;;;;;;;10.06;100.00;100998.47;5034796;28;20033;-80
2023/04/05 02:57:23;;;;;;;0.80;0.63;;;;;;;10.07;100.00;100994.78;5034789;28;20033;-79
2023/04/05 02:59:50;;;;;;;0.95;0.60;;;;;;;10.07;100.00;100994.78;5002018;28;20120;-83
2023/04/05 03:02:18;;;;;;;0.95;0.50;;;;;;;10.06;100.00;100985.06;5034648;28;20555;-84
2023/04/05 03:04:43;;;;;;;0.55;0.55;;;;;;;10.07;100.00;100978.66;5001409;28;20140;-81
2023/04/05 03:07:13;;;;;;;0.75;0.70;;;;;;;10.09;100.00;100987.41;5002349;28;20061;-80
2023/04/05 03:09:39;;;;;;;1.90;0.80;;;;;;;10.07;100.00;100967.06;5018575;28;20084;-83
2023/04/05 03:12:05;;;;;;;1.27;0.70;;;;;;;10.09;100.00;100979.34;5016981;28;20034;-80
2023/04/05 03:14:31;;;;;;;0.90;0.73;;;;;;;10.09;100.00;100967.75;5002110;28;20033;-83
2023/04/05 03:16:57;;;;;;;3.20;1.00;;;;;;;10.11;100.00;100963.91;5017112;28;20025;-80
2023/04/05 03:19:24;;;;;;;0.73;0.60;;;;;;;10.13;100.00;100964.56;5035530;28;20476;-82
2023/04/05 03:21:51;;;;;;;0.98;0.77;;;;;;;10.18;100.00;100964.06;5033723;28;20045;-81
2023/04/05 03:24:17;;;;;;;1.13;0.70;;;;;;;10.21;100.00;100962.88;5034172;28;20038;-83
2023/04/05 03:26:45;;;;;;;1.13;1.02;;;;;;;10.21;100.00;100944.06;5017054;28;20033;-79
2023/04/05 03:29:11;;;;;;;2.58;0.90;;;;;;;10.31;100.00;100952.81;5017488;28;20029;-81
2023/04/05 03:31:37;;;;;;;0.85;0.77;;;;;;;10.31;100.00;100952.81;5033702;28;20029;-79
2023/04/05 03:34:04;;;;;;;0.70;0.70;;;;;;;10.39;100.00;100955.50;5001755;28;20061;-83
2023/04/05 03:36:41;;;;;;;1.48;1.00;;;;;;;10.45;100.00;100962.03;5034318;28;20474;-83
2023/04/05 03:39:09;;;;;;;0.57;0.57;;;;;;;10.48;100.00;100959.88;5019064;28;20053;-84
2023/04/05 03:41:39;;;;;;;1.10;0.68;;;;;;;10.48;100.00;100959.88;5017946;28;20040;-80
2023/04/05 03:44:05;;;;;;;0.60;0.60;;;;;;;10.55;100.00;100960.84;5001204;28;20029;-78
2023/04/05 03:46:31;;;;;;;1.35;0.88;;;;;;;10.58;100.00;100954.28;5000987;28;20075;-80
2023/04/05 03:48:58;;;;;;;2.58;0.82;;;;;;;10.60;100.00;100949.59;5001419;28;20480;-83
2023/04/05 03:51:24;;;;;;;3.33;0.85;;;;;;;10.66;100.00;100956.13;5001083;28;20567;-79
2023/04/05 03:53:50;;;;;;;6.32;1.30;;;;;;;10.66;100.00;100937.31;5033640;28;20060;-81
2023/04/05 03:56:16;;;;;;;2.72;0.98;;;;;;;10.72;100.00;100944.72;5017203;28;20033;-79
2023/04/05 03:58:42;;;;;;;2.42;0.93;;;;;;;10.76;100.00;100937.94;5000680;28;20507;-79
2023/04/05 04:01:08;;;;;;;4.65;0.80;;;;;;;10.76;100.00;100938.78;5001061;28;20037;-79
2023/04/05 04:03:36;;;;;;;2.85;0.70;;;;;;;10.78;100.00;100941.31;5000320;28;20034;-78
2023/04/05 04:06:03;;;;;;;1.83;1.30;;;;;;;10.75;100.00;100939.81;5033405;28;20460;-81
2023/04/05 04:08:29;;;;;;;3.30;1.08;;;;;;;10.79;100.00;100937.59;5017403;28;20037;-82
2023/04/05 04:10:58;;;;;;;2.40;0.93;;;;;;;10.83;100.00;100933.56;5000747;28;20511;-83
2023/04/05 04:13:24;;;;;;;4.38;1.30;;;;;;;10.85;100.00;100941.44;5034586;28;20404;-82
2023/04/05 04:15:50;;;;;;;4.93;1.50;;;;;;;10.87;100.00;100936.75;5016863;28;20033;-81
2023/04/05 04:18:16;;;;;;;2.08;1.30;;;;;;;10.86;100.00;100937.75;5016669;28;20026;-81
2023/04/05 04:20:41;;;;;;;3.60;1.20;;;;;;;10.85;100.00;100934.25;5000480;28;20033;-85
2023/04/05 04:23:09;;;;;;;2.40;1.00;;;;;;;10.85;100.00;100939.63;5000047;28;20029;-79
2023/04/05 04:25:35;;;;;;;1.75;0.73;;;;;;;10.80;100.00;100936.59;5033100;28;20040;-82
2023/04/05 04:28:03;;;;;;;1.45;0.82;;;;;;;10.81;100.00;100932.91;5016474;28;20063;-84
2023/04/05 04:30:28;;;;;;;1.65;0.90;;;;;;;10.87;100.00;100926.81;5033103;28;20041;-79
2023/04/05 04:32:55;;;;;;;4.43;1.17;;;;;;;10.87;100.00;100925.97;5016196;28;20025;-80
2023/04/05 04:35:27;;;;;;;3.17;0.75;;;;;;;10.89;100.00;100932.88;5000671;28;20120;-81
2023/04/05 04:37:59;;;;;;;2.55;1.05;;;;;;;10.86;100.00;100930.53;5000326;28;20033;-80
2023/04/05 04:40:37;;;;;;;1.85;1.00;;;;;;;10.87;100.00;100924.13;5016352;28;20392;-80
2023/04/05 04:43:17;;;;;;;3.10;0.77;;;;;;;10.89;100.00;100921.28;5033168;28;20391;-83
2023/04/05 04:45:48;;;;;;;0.90;0.82;;;;;;;10.90;100.00;100915.72;5033169;28;20455;-81
2023/04/05 04:48:15;;;;;;;5.63;1.30;;;;;;;10.96;100.00;100923.09;5000205;28;20545;-83
2023/04/05 04:50:42;;;;;;;3.75;0.90;;;;;;;11.00;100.00;100924.41;5000611;28;20468;-80
2023/04/05 04:53:09;;;;;;;8.40;1.58;;;;;;;11.03;100.00;100922.38;4999922;28;20468;-82
2023/04/05 04:55:35;;;;;;;1.80;1.08;;;;;;;11.04;100.00;100926.78;5032869;28;20116;-82
2023/04/05 04:58:08;;;;;;;2.33;0.98;;;;;;;11.05;100.00;100923.06;5000314;28;20124;-80
2023/04/05 05:00:35;;;;;;;0.88;0.68;;;;;;;11.07;100.00;100921.88;5000496;28;20476;-80
2023/04/05 05:03:01;;;;;;;2.28;1.13;;;;;;;11.07;100.00;100918.34;5032487;28;20479;-83
2023/04/05 05:05:27;;;;;;;3.33;0.68;;;;;;;11.07;100.00;100921.03;4999554;28;20452;-79
2023/04/05 05:07:53;;;;;;;2.63;1.25;;;;;;;11.07;100.00;100921.88;5016412;28;20060;-80
2023/04/05 05:10:19;;;;;;;1.45;0.70;;;;;;;11.08;100.00;100914.63;4998839;28;20037;-84
2023/04/05 05:12:47;;;;;;;4.88;1.45;;;;;;;11.08;100.00;100922.72;4999947;28;20472;-80
2023/04/05 05:15:13;;;;;;;1.90;0.93;;;;;;;11.05;100.00;100918.50;5016216;28;20044;-81
2023/04/05 05:17:39;;;;;;;1.95;0.85;;;;;;;11.05;100.00;100913.13;5015111;28;20494;-81
2023/04/05 05:20:09;;;;;;;5.22;1.73;;;;;;;11.05;100.00;100912.28;4999949;28;20033;-84
2023/04/05 05:22:39;;;;;;;2.00;0.95;;;;;;;11.06;100.00;100912.13;5032327;28;20480;-80
2023/04/05 05:25:11;;;;;;;0.40;0.40;;;;;;;11.08;100.00;100917.31;4999660;28;20021;-80
2023/04/05 05:27:37;;;;;;;6.38;1.35;;;;;;;11.01;100.00;100909.13;5016408;28;20036;-81
2023/04/05 05:30:03;;;;;;;5.68;1.25;;;;;;;11.09;100.00;100919.03;4999449;28;20389;-82
2023/04/05 05:32:29;;;;;;;3.03;1.13;;;;;;;11.04;100.00;100910.63;5015543;28;20038;-80
2023/04/05 05:34:55;;;;;;;1.95;0.70;;;;;;;11.02;100.00;100915.34;5015771;28;20037;-84
2023/04/05 05:37:28;;;;;;;3.80;0.90;;;;;;;10.92;100.00;100902.09;5033264;28;20052;-81
2023/04/05 05:39:54;;;;;;;4.43;1.63;;;;;;;10.96;100.00;100906.94;5032124;28;20029;-83
2023/04/05 05:42:21;;;;;;;3.20;1.33;;;;;;;11.04;100.00;100916.00;5016009;28;20049;-84
2023/04/05 05:44:46;;;;;;;5.20;1.42;;;;;;;11.07;100.00;100910.28;5031907;28;20025;-79
2023/04/05 05:47:12;;;;;;;2.22;0.80;;;;;;;11.08;100.00;100906.56;4999747;28;20042;-80
2023/04/05 05:49:37;;;;;;;3.60;1.33;;;;;;;11.11;100.00;100914.28;4999698;28;20464;-80
2023/04/05 05:52:03;;;;;;;6.35;0.98;;;;;;;11.12;100.00;100907.91;4999687;28;20353;-84
2023/04/05 05:54:29;;;;;;;3.75;1.00;;;;;;;10.96;100.00;100888.13;5015746;28;20493;-81
2023/04/05 05:56:55;;;;;;;2.25;1.17;;;;;;;11.04;100.00;100907.94;5015643;28;20515;-80
2023/04/05 05:59:21;;;;;;;5.45;2.00;;;;;;;11.00;100.00;100905.56;5031971;28;20499;-80
2023/04/05 06:01:47;;;;;;;2.25;1.20;;;;;;;11.02;100.00;100912.66;4999545;28;20073;-82
2023/04/05 06:04:13;;;;;;;2.35;1.30;;;;;;;10.99;100.00;100906.59;4983269;28;20369;-83
2023/04/05 06:06:41;;;;;;;4.80;2.03;;;;;;;10.98;100.00;100904.06;4999603;28;20041;-82
2023/04/05 06:09:07;;;;;;;3.60;1.33;;;;;;;10.98;100.00;100912.16;5015922;28;20025;-80
2023/04/05 06:11:33;;;;;;;3.20;1.10;;;;;;;10.98;100.00;100907.63;4999392;28;20044;-81
2023/04/05 06:13:58;;;;;;;4.72;1.45;;;;;;;11.03;100.00;100903.56;4999209;28;20037;-79
2023/04/05 06:16:24;;;;;;;0.95;0.95;;;;;;;11.05;100.00;100915.00;5033176;28;20042;-80
2023/04/05 06:18:50;;;;;;;4.82;1.20;;;;;;;11.00;100.00;100904.75;4999050;28;20083;-83
2023/04/05 06:21:16;;;;;;;3.03;0.90;;;;;;;10.92;100.00;100902.91;4999402;28;20139;-81
2023/04/05 06:23:42;;;;;;;2.85;0.88;;;;;;;10.86;100.00;100906.31;5036549;28;20048;-79
2023/04/05 06:26:08;;;;;;;3.80;0.82;;;;;;;10.77;100.00;100910.06;5019185;28;20380;-79
2023/04/05 06:28:34;;;;;;;4.85;1.30;;;;;;;10.68;100.00;100905.72;5002830;28;20030;-81
2023/04/05 06:31:00;;;;;;;2.60;0.90;;;;;;;10.65;100.00;100900.69;5002683;28;20059;-83
2023/04/05 06:33:25;;;;;;;3.05;1.10;;;;;;;10.64;100.00;100909.75;5002841;28;20030;-78
2023/04/05 06:35:51;;;;;;;1.77;0.90;;;;;;;10.64;100.00;100904.38;5018961;28;20124;-78
2023/04/05 06:38:17;;;;;;;1.75;0.80;;;;;;;10.63;100.00;100903.53;5035524;28;20398;-78
2023/04/05 06:40:42;;;;;;;3.05;0.80;;;;;;;10.58;100.00;100895.13;5018706;28;20365;-78
2023/04/05 06:43:09;;;;;;;2.83;0.90;;;;;;;10.58;100.00;100897.81;5035262;28;20122;-79
2023/04/05 06:45:36;;;;;;;6.70;1.13;;;;;;;10.56;100.00;100892.66;5035198;28;20040;-78
2023/04/05 06:48:01;;;;;;;0.82;0.70;;;;;;;10.68;100.00;100901.16;5002543;28;20049;-78
2023/04/05 06:50:27;;;;;;;3.25;1.15;;;;;;;10.73;100.00;100909.56;5002637;28;20026;-78
2023/04/05 06:52:52;;;;;;;1.90;1.20;;;;;;;10.78;100.00;100898.28;5018454;28;20388;-78
2023/04/05 06:55:18;;;;;;;2.85;0.80;;;;;;;10.76;100.00;100898.44;5035166;28;20037;-78
2023/04/05 06:57:44;;;;;;;1.67;0.80;;;;;;;10.80;100.00;100890.88;5035049;28;20022;-78
2023/04/05 07:00:12;;;;;;;2.50;0.90;;;;;;;10.87;100.00;100907.97;5002539;28;20033;-78
2023/04/05 07:02:38;;;;;;;4.68;1.23;;;;;;;10.92;100.00;100897.53;5018839;28;20095;-79
2023/04/05 07:05:04;;;;;;;3.17;1.20;;;;;;;11.06;100.00;100901.38;5018332;28;20033;-79
2023/04/05 07:07:32;;;;;;;4.80;1.88;;;;;;;11.11;100.00;100901.66;5034836;28;20029;-78
2023/04/05 07:09:58;;;;;;;3.63;0.90;;;;;;;11.08;100.00;100885.03;5018330;28;20429;-79
2023/04/05 07:12:23;;;;;;;2.53;0.77;;;;;;;11.15;100.00;100904.84;5034694;28;20124;-78
2023/04/05 07:14:49;;;;;;;0.73;0.60;;;;;;;11.14;100.00;100901.34;5018517;28;20040;-77
2023/04/05 07:17:15;;;;;;;2.67;0.93;;;;;;;11.11;100.00;100896.28;5034722;28;20107;-78
2023/04/05 07:19:41;;;;;;;1.08;0.70;;;;;;;11.21;100.00;100896.06;5034342;28;20173;-78
2023/04/05 07:22:07;;;;;;;0.80;0.50;;;;;;;11.23;100.00;100897.56;5034416;28;20373;-79
2023/04/05 07:24:32;;;;;;;1.45;0.77;;;;;;;11.22;100.00;100895.91;5017320;28;20120;-79
2023/04/05 07:26:58;;;;;;;1.85;1.17;;;;;;;11.22;100.00;100887.00;5034044;28;20040;-79
2023/04/05 07:29:23;;;;;;;4.53;1.20;;;;;;;11.22;100.00;100903.16;5016571;28;20029;-78
2023/04/05 07:31:49;;;;;;;2.67;0.90;;;;;;;11.22;100.00;100897.75;5034303;28;20113;-79
2023/04/05 07:34:15;;;;;;;3.42;1.13;;;;;;;11.17;100.00;100900.97;5016979;28;20476;-79
2023/04/05 07:36:40;;;;;;;1.10;0.85;;;;;;;11.10;100.00;100899.16;5034267;28;20045;-79
2023/04/05 07:39:06;;;;;;;2.05;1.10;;;;;;;11.14;100.00;100906.72;5033978;28;20411;-79
2023/04/05 07:41:34;;;;;;;0.50;0.50;;;;;;;11.13;100.00;100904.19;5034223;28;20036;-78
2023/04/05 07:44:00;;;;;;;0.40;0.40;;;;;;;11.14;100.00;100905.84;5034996;28;20099;-79
2023/04/05 07:46:26;;;;;;;0.75;0.75;;;;;;;11.18;100.00;100899.94;5035316;28;20076;-79
2023/04/05 07:48:53;;;;;;;0.43;0.43;;;;;;;11.25;100.00;100892.03;5001504;28;20041;-79
2023/04/05 07:51:18;;;;;;;0.40;0.40;;;;;;;11.35;100.00;100897.16;5017652;28;20124;-80
2023/04/05 07:53:44;;;;;;;0.55;0.55;;;;;;;11.43;100.00;100891.72;5034037;28;20108;-79
2023/04/05 07:56:11;;;;;;;0.40;0.40;;;;;;;11.47;100.00;100886.84;5001288;28;20175;-79
2023/04/05 07:58:40;;;;;;;0.40;0.40;;;;;;;11.54;100.00;100887.81;5033871;28;20029;-79
2023/04/05 08:01:07;;;;;;;0.40;0.40;;;;;;;11.52;100.00;100876.38;5017831;28;20542;-79
2023/04/05 08:03:35;;;;;;;0.30;0.30;;;;;;;11.53;100.00;100883.41;5017471;28;20116;-79
2023/04/05 08:06:18;;;;;;;0.30;0.30;;;;;;;11.56;100.00;100888.44;5033420;28;20041;-79
2023/04/05 08:08:44;;;;;;;0.50;0.50;;;;;;;11.45;100.00;100882.44;5017402;28;20030;-80
2023/04/05 08:11:10;;;;;;;1.30;1.30;;;;;;;11.31;100.00;100871.63;5034744;28;20064;-79
2023/04/05 08:13:39;;;;;;;0.30;0.30;;;;;;;11.25;100.00;100886.63;5034780;28;20068;-79
2023/04/05 08:16:05;;;;;;;0.30;0.30;;;;;;;11.21;100.00;100882.59;5016612;28;20056;-80
2023/04/05 08:18:31;;;;;;;0.40;0.40;;;;;;;11.25;100.00;100893.88;5016681;28;20488;-84
2023/04/05 08:21:00;;;;;;;0.32;0.32;;;;;;;11.26;100.00;100887.47;5000801;28;20029;-78
2023/04/05 08:23:26;;;;;;;0.40;0.40;;;;;;;11.23;100.00;100885.97;5000719;28;20167;-79
2023/04/05 08:25:52;;;;;;;0.40;0.40;;;;;;;11.21;100.00;100891.50;5016787;28;20037;-81
2023/04/05 08:28:21;;;;;;;0.40;0.40;;;;;;;11.16;100.00;100871.53;5033371;28;20038;-82
2023/04/05 08:30:47;;;;;;;0.32;0.32;;;;;;;11.20;100.00;100879.09;5016894;28;20041;-80
2023/04/05 08:33:13;;;;;;;0.40;0.40;;;;;;;11.24;100.00;100879.56;5033528;28;20029;-85
2023/04/05 08:35:41;;;;;;;0.40;0.40;;;;;;;11.29;100.00;100874.47;5032949;28;20046;-83
2023/04/05 08:38:07;;;;;;;0.40;0.40;;;;;;;11.41;100.00;100878.44;5016670;28;20029;-81
2023/04/05 08:40:41;;;;;;;0.40;0.40;;;;;;;11.51;100.00;100874.66;5016404;28;20108;-79
2023/04/05 08:43:17;;;;;;;0.40;0.40;;;;;;;11.71;100.00;100875.88;5032916;28;20163;-78
2023/04/05 08:45:48;;;;;;;0.80;0.80;;;;;;;11.81;100.00;100883.72;4999863;28;20068;-78
2023/04/05 08:48:15;;;;;;;0.40;0.40;;;;;;;11.86;100.00;100878.66;5016441;28;20033;-79
2023/04/05 08:50:41;;;;;;;0.30;0.30;;;;;;;11.97;100.00;100874.69;5000301;28;20041;-78
2023/04/05 08:53:09;;;;;;;0.47;0.47;;;;;;;12.05;100.00;100880.00;5032887;28;20029;-79
2023/04/05 08:55:36;;;;;;;0.35;0.35;;;;;;;12.06;100.00;100884.38;5034178;28;20036;-79
2023/04/05 08:58:07;;;;;;;0.30;0.30;;;;;;;11.99;100.00;100886.97;5032588;28;20025;-82
2023/04/05 09:00:33;;;;;;;0.30;0.30;;;;;;;11.95;100.00;100887.50;5015343;28;20383;-82
2023/04/05 09:03:01;;;;;;;0.30;0.30;;;;;;;11.94;100.00;100892.06;5033514;28;20025;-84
2023/04/05 09:05:28;;;;;;;0.45;0.45;;;;;;;11.94;100.00;100880.47;5033084;28;20025;-84
2023/04/05 09:07:54;;;;;;;0.30;0.30;;;;;;;11.86;100.00;100884.88;5016816;28;20044;-84
2023/04/05 09:10:20;;;;;;;0.30;0.30;;;;;;;11.87;100.00;100891.09;5032863;28;20480;-83
2023/04/05 09:12:46;;;;;;;0.30;0.30;;;;;;;11.96;100.00;100898.13;4999890;28;20041;-84
2023/04/05 09:15:13;;;;;;;0.40;0.40;;;;;;;12.03;100.00;100900.91;5000218;28;20059;-84
2023/04/05 09:17:41;;;;;;;0.40;0.40;;;;;;;12.07;100.00;100907.63;5032878;28;20030;-85
2023/04/05 09:20:07;;;;;;;0.30;0.30;;;;;;;12.28;100.00;100907.75;5032612;28;20041;-84
2023/04/05 09:22:45;;;;;;;0.40;0.40;;;;;;;12.55;100.00;100889.28;5032877;28;20449;-83
2023/04/05 09:25:30;;;;;;;0.80;0.80;;;;;;;12.88;100.00;100903.22;5016366;28;20025;-84
2023/04/05 09:27:55;;;;;;;0.50;0.50;;;;;;;13.35;100.00;100882.22;5034291;28;20064;-86
2023/04/05 09:30:22;;;;;;;0.40;0.40;;;;;;;13.98;100.00;100904.03;5033413;28;20061;-83
2023/04/05 09:32:51;;;;;;;0.40;0.40;;;;;;;13.75;100.00;100907.78;5000771;28;20095;-82
2023/04/05 09:35:21;;;;;;;0.40;0.40;;;;;;;13.39;100.00;100914.06;5000614;28;20038;-83
2023/04/05 09:37:56;;;;;;;0.30;0.30;;;;;;;12.87;100.00;100906.94;5000289;28;20037;-82
2023/04/05 09:40:22;;;;;;;0.40;0.40;;;;;;;12.67;100.00;100912.06;5016123;28;20026;-83
2023/04/05 09:42:48;;;;;;;0.35;0.35;;;;;;;12.64;100.00;100904.34;5032723;28;20044;-83
2023/04/05 09:45:15;;;;;;;0.40;0.40;;;;;;;12.82;100.00;100908.53;5032411;28;20029;-83
2023/04/05 09:47:41;;;;;;;0.43;0.43;;;;;;;12.99;100.00;100910.00;5031967;28;20033;-78
2023/04/05 09:50:12;;;;;;;0.30;0.30;;;;;;;13.14;100.00;100909.97;5015637;28;20029;-81
2023/04/05 09:52:38;;;;;;;0.40;0.40;;;;;;;13.31;100.00;100913.31;5032170;28;20755;-80
2023/04/05 09:55:06;;;;;;;0.45;0.45;;;;;;;13.57;100.00;100897.41;5032084;28;20045;-79
2023/04/05 09:57:40;;;;;;;0.40;0.40;;;;;;;14.03;100.00;100901.59;5017988;28;20065;-79
2023/04/05 10:00:08;;;;;;;;;;;;;;;14.10;100.00;100909.75;5019736;28;20361;-79
2023/04/05 10:02:36;;;;;;;0.38;0.38;;;;;;;14.15;100.00;100899.19;5052322;28;19916;-81
2023/04/05 10:05:06;;;;;;;0.38;0.38;;;;;;;14.17;100.00;100897.13;5019302;28;20037;-82
2023/04/05 10:07:32;;;;;;;0.30;0.30;;;;;;;14.17;100.00;100902.53;5035848;28;20048;-78
2023/04/05 10:09:59;;;;;;;0.30;0.30;;;;;;;14.19;100.00;100897.78;5003016;28;20384;-78
2023/04/05 10:12:26;;;;;;;0.35;0.35;;;;;;;14.18;100.00;100901.50;5019512;28;20112;-78
2023/04/05 10:14:52;;;;;;;0.40;0.40;;;;;;;14.13;100.00;100909.34;5002836;28;20099;-80
2023/04/05 10:17:30;;;;;;;0.40;0.40;;;;;;;14.20;100.00;100904.84;5019097;28;20037;-78
2023/04/05 10:20:20;;;;;;;0.40;0.40;;;;;;;14.64;100.00;100909.16;5035526;28;20072;-78
2023/04/05 10:23:28;;;;;;;0.40;0.40;;;;;;;14.77;100.00;100911.94;5069074;28;20073;-77
2023/04/05 10:25:53;;;;;;;0.40;0.40;;;;;;;14.29;100.00;100906.38;5032032;28;20068;-80
2023/04/05 10:28:32;;;;;;;0.40;0.40;;;;;;;13.88;100.00;100907.06;5036742;28;20057;-78
2023/04/05 10:31:10;;;;;;;0.40;0.40;;;;;;;13.59;100.00;100916.13;5019304;28;20124;-78
2023/04/05 10:33:42;;;;;;;0.30;0.30;;;;;;;13.34;100.00;100911.09;5035472;28;20396;-78
2023/04/05 10:36:37;;;;;;;0.40;0.40;;;;;;;13.28;100.00;100925.34;5035095;28;20544;-78
2023/04/05 10:39:08;;;;;;;0.38;0.38;;;;;;;13.18;100.00;100924.78;5018923;28;20029;-78
2023/04/05 10:41:37;;;;;;;0.40;0.40;;;;;;;13.23;100.00;100919.66;5018939;28;20037;-79
2023/04/05 10:44:04;;;;;;;0.30;0.30;;;;;;;13.26;100.00;100907.63;5002473;28;20040;-80
2023/04/05 10:46:30;;;;;;;0.40;0.40;;;;;;;13.25;100.00;100919.47;5002738;28;20128;-78
2023/04/05 10:49:15;;;;;;;0.40;0.40;;;;;;;13.11;100.00;100922.00;5018259;28;20129;-77
2023/04/05 10:51:42;;;;;;;0.40;0.40;;;;;;;12.94;100.00;100915.16;5002491;28;20040;-77
2023/04/05 10:54:10;;;;;;;0.30;0.30;;;;;;;12.86;100.00;100909.81;5018869;28;20472;-78
2023/04/05 10:56:39;;;;;;;0.30;0.30;;;;;;;12.79;100.00;100920.53;5018589;28;20044;-78
2023/04/05 10:59:05;;;;;;;0.30;0.30;;;;;;;12.58;100.00;100926.66;5036407;28;20159;-77
2023/04/05 11:01:31;;;;;;;0.40;0.40;;;;;;;12.43;100.00;100925.81;5002021;28;20029;-77
2023/04/05 11:04:10;;;;;;;0.30;0.30;;;;;;;12.39;100.00;100929.91;5033257;28;20052;-80
2023/04/05 11:06:35;;;;;;;0.40;0.40;;;;;;;12.47;100.00;100935.22;5034852;28;20095;-83
2023/04/05 11:09:21;;;;;;;0.30;0.30;;;;;;;12.62;100.00;100925.28;5033615;28;20045;-83
2023/04/05 11:11:48;;;;;;;0.30;0.30;;;;;;;12.70;100.00;100932.44;5034182;28;20095;-83
2023/04/05 11:14:25;;;;;;;0.40;0.40;;;;;;;12.67;100.00;100930.09;5001812;28;20051;-84
2023/04/05 11:16:55;;;;;;;0.30;0.30;;;;;;;12.62;100.00;100932.53;5018126;28;20033;-84
2023/04/05 11:19:46;;;;;;;0.30;0.30;;;;;;;12.41;100.00;100930.53;5018172;28;20041;-82
2023/04/05 11:22:24;;;;;;;0.40;0.40;;;;;;;12.22;100.00;100929.19;5017525;28;20041;-84
2023/04/05 11:24:56;;;;;;;0.35;0.35;;;;;;;12.10;100.00;100936.91;5018023;28;20077;-84
2023/04/05 11:27:35;;;;;;;0.30;0.30;;;;;;;11.97;100.00;100940.19;5001798;28;20033;-84